Time;durP1;ratioP1;P1;durP2;ratioP2;P2;SDS_P1;SDS_P2;PMS_P1;PMS_P2;Temp;Humidity;BMP_temperature;BMP_pressure;BME280_temperature;BME280_humidity;BME280_pressure;Samples;Min_cycle;Max_cycle;Signal;HPM_P1;HPM_P2
2023/01/07 00:01:31;;;;;;;;;;;7.80;99.90;;;;;;5043548;28;20056;-81
2023/01/07 00:03:59;;;;;;;0.30;0.30;;;7.70;99.90;;;;;;5043925;28;19912;-80
2023/01/07 00:06:32;;;;;;;0.10;0.10;;;7.80;99.90;;;;;;5041723;28;20052;-81
2023/01/07 00:08:58;;;;;;;0.25;0.25;;;7.70;99.90;;;;;;5035198;28;20064;-81
2023/01/07 00:11:30;;;;;;;0.20;0.20;;;7.70;99.90;;;;;;5043963;28;20104;-80
2023/01/07 00:13:57;;;;;;;0.10;0.10;;;7.60;99.90;;;;;;5043604;28;20036;-80
2023/01/07 00:16:25;;;;;;;0.30;0.30;;;7.70;99.90;;;;;;5043294;28;20388;-80
2023/01/07 00:18:53;;;;;;;0.10;0.10;;;7.70;99.90;;;;;;5036230;28;20052;-80
2023/01/07 00:21:20;;;;;;;0.20;0.20;;;7.70;99.90;;;;;;5051687;28;20119;-80
2023/01/07 00:23:46;;;;;;;0.20;0.20;;;7.60;99.90;;;;;;5044125;28;20103;-80
2023/01/07 00:26:20;;;;;;;0.13;0.13;;;7.50;99.90;;;;;;5043392;28;20033;-79
2023/01/07 00:28:47;;;;;;;0.13;0.13;;;7.60;99.90;;;;;;5040660;28;20028;-79
2023/01/07 00:31:16;;;;;;;0.10;0.10;;;7.50;99.90;;;;;;5037603;28;20116;-79
2023/01/07 00:33:50;;;;;;;0.65;0.30;;;7.60;99.90;;;;;;5043264;28;20035;-79
2023/01/07 00:36:17;;;;;;;0.20;0.20;;;7.50;99.90;;;;;;5042969;28;20778;-79
2023/01/07 00:38:43;;;;;;;0.20;0.20;;;7.50;99.90;;;;;;5042986;28;20041;-79
2023/01/07 00:41:09;;;;;;;0.30;0.30;;;7.50;99.90;;;;;;5043119;28;20045;-80
2023/01/07 00:43:35;;;;;;;0.10;0.10;;;7.40;99.90;;;;;;5043027;28;20028;-79
2023/01/07 00:46:01;;;;;;;0.20;0.20;;;7.50;99.90;;;;;;5036906;28;20065;-78
2023/01/07 00:48:27;;;;;;;0.20;0.20;;;7.40;99.90;;;;;;5043152;28;20155;-78
2023/01/07 00:50:53;;;;;;;0.22;0.22;;;7.40;99.90;;;;;;5042498;28;20065;-78
2023/01/07 00:53:19;;;;;;;0.83;0.60;;;7.40;99.90;;;;;;5042265;28;20128;-79
2023/01/07 00:55:47;;;;;;;0.28;0.28;;;7.30;99.90;;;;;;5042523;28;20029;-79
2023/01/07 00:58:14;;;;;;;0.20;0.20;;;7.30;99.90;;;;;;5037710;28;20037;-79
2023/01/07 01:00:40;;;;;;;0.75;0.40;;;7.30;99.90;;;;;;5041920;28;20036;-79
2023/01/07 01:03:07;;;;;;;0.20;0.20;;;7.30;99.90;;;;;;5040688;28;20037;-80
2023/01/07 01:05:33;;;;;;;0.20;0.20;;;7.10;99.90;;;;;;5043304;28;20063;-80
2023/01/07 01:07:58;;;;;;;0.65;0.65;;;7.10;99.90;;;;;;5049358;28;20072;-79
2023/01/07 01:10:24;;;;;;;0.20;0.20;;;7.10;99.90;;;;;;5043276;28;20436;-80
2023/01/07 01:12:50;;;;;;;0.10;0.10;;;7.10;99.90;;;;;;5051944;28;20113;-79
2023/01/07 01:15:16;;;;;;;0.60;0.60;;;7.10;99.90;;;;;;5048644;28;20020;-80
2023/01/07 01:17:41;;;;;;;0.10;0.10;;;7.00;99.90;;;;;;5044588;28;20028;-80
2023/01/07 01:20:12;;;;;;;0.30;0.30;;;7.00;99.90;;;;;;5044939;28;20033;-80
2023/01/07 01:22:37;;;;;;;0.30;0.30;;;7.00;99.90;;;;;;5046637;28;20030;-79
2023/01/07 01:25:04;;;;;;;0.10;0.10;;;7.00;99.90;;;;;;5051167;28;20741;-79
2023/01/07 01:27:30;;;;;;;0.37;0.37;;;6.90;99.90;;;;;;5042078;28;20639;-80
2023/01/07 01:29:56;;;;;;;0.13;0.13;;;6.90;99.90;;;;;;5042247;28;20314;-80
2023/01/07 01:32:22;;;;;;;0.10;0.10;;;6.90;99.90;;;;;;5042186;28;20040;-80
2023/01/07 01:34:48;;;;;;;0.30;0.30;;;6.90;99.90;;;;;;5042227;28;20025;-80
2023/01/07 01:37:14;;;;;;;0.75;0.75;;;7.00;99.90;;;;;;5039691;28;20041;-80
2023/01/07 01:39:40;;;;;;;0.20;0.20;;;7.00;99.90;;;;;;5040054;28;20033;-80
2023/01/07 01:42:08;;;;;;;0.55;0.55;;;7.00;99.90;;;;;;5042428;28;20035;-80
2023/01/07 01:44:48;;;;;;;0.10;0.10;;;6.90;99.90;;;;;;5042025;28;20040;-79
2023/01/07 01:47:39;;;;;;;0.47;0.35;;;6.90;99.90;;;;;;5041819;28;20555;-80
2023/01/07 01:50:07;;;;;;;0.10;0.10;;;6.90;99.90;;;;;;5041880;28;20029;-80
2023/01/07 01:52:57;;;;;;;0.35;0.35;;;6.80;99.90;;;;;;5041031;28;20500;-80
2023/01/07 01:55:31;;;;;;;0.17;0.17;;;6.80;99.90;;;;;;5037581;28;20514;-80
2023/01/07 01:58:02;;;;;;;0.10;0.10;;;6.90;99.90;;;;;;5041070;28;20025;-79
2023/01/07 02:00:28;;;;;;;0.20;0.20;;;6.80;99.90;;;;;;5040353;28;20056;-78
2023/01/07 02:02:57;;;;;;;0.30;0.30;;;6.50;99.90;;;;;;5035154;28;20040;-78
2023/01/07 02:05:33;;;;;;;0.40;0.38;;;6.40;99.90;;;;;;5035879;28;20057;-79
2023/01/07 02:07:58;;;;;;;0.10;0.10;;;6.40;99.90;;;;;;5041274;28;20057;-78
2023/01/07 02:10:25;;;;;;;0.10;0.10;;;6.40;99.90;;;;;;5045421;28;20083;-78
2023/01/07 02:12:54;;;;;;;1.30;1.20;;;6.40;99.90;;;;;;5044479;28;20039;-79
2023/01/07 02:15:57;;;;;;;0.28;0.28;;;6.40;99.90;;;;;;5045442;28;20029;-78
2023/01/07 02:18:43;;;;;;;0.40;0.40;;;6.50;99.90;;;;;;5043752;28;20400;-79
2023/01/07 02:21:45;;;;;;;0.13;0.13;;;6.50;99.90;;;;;;5053352;28;20126;-79
2023/01/07 02:24:17;;;;;;;0.32;0.32;;;6.60;99.90;;;;;;5044856;28;20074;-79
2023/01/07 02:26:51;;;;;;;0.20;0.20;;;6.60;99.90;;;;;;5044756;28;20053;-79
2023/01/07 02:29:39;;;;;;;0.40;0.40;;;6.70;99.90;;;;;;5036298;28;20043;-79
2023/01/07 02:32:25;;;;;;;0.20;0.20;;;6.60;99.90;;;;;;5044908;28;20175;-79
2023/01/07 02:35:00;;;;;;;0.10;0.10;;;6.80;99.90;;;;;;5044728;28;20025;-79
2023/01/07 02:37:52;;;;;;;0.10;0.10;;;6.80;99.90;;;;;;5049770;28;20087;-79
2023/01/07 02:40:29;;;;;;;0.40;0.40;;;6.70;99.90;;;;;;5043039;28;20040;-80
2023/01/07 02:42:58;;;;;;;0.20;0.20;;;6.60;99.90;;;;;;5045208;28;20099;-79
2023/01/07 02:45:30;;;;;;;0.30;0.30;;;6.50;99.90;;;;;;5039807;28;20045;-79
2023/01/07 02:48:06;;;;;;;0.85;0.85;;;6.40;99.90;;;;;;5044440;28;20055;-80
2023/01/07 02:50:32;;;;;;;0.10;0.10;;;6.40;99.90;;;;;;5044065;28;20040;-80
2023/01/07 02:52:58;;;;;;;0.10;0.10;;;6.30;99.90;;;;;;5044882;28;20084;-79
2023/01/07 02:55:48;;;;;;;0.17;0.17;;;6.30;99.90;;;;;;5044410;28;20116;-79
2023/01/07 02:58:38;;;;;;;0.17;0.17;;;6.30;99.90;;;;;;5043128;28;20033;-80
2023/01/07 03:01:07;;;;;;;0.22;0.22;;;6.30;99.90;;;;;;5042851;28;20021;-79
2023/01/07 03:03:51;;;;;;;0.10;0.10;;;6.30;99.90;;;;;;5044453;28;20064;-79
2023/01/07 03:06:26;;;;;;;0.10;0.10;;;6.50;99.90;;;;;;5043407;28;20116;-79
2023/01/07 03:09:26;;;;;;;2.47;0.25;;;6.50;99.90;;;;;;5044305;28;20131;-79
2023/01/07 03:12:18;;;;;;;0.10;0.10;;;6.60;99.90;;;;;;5044299;28;20037;-79
2023/01/07 03:14:48;;;;;;;0.70;0.68;;;6.60;99.90;;;;;;5041740;28;20081;-80
2023/01/07 03:17:26;;;;;;;0.40;0.40;;;6.60;99.90;;;;;;5043658;28;20738;-80
2023/01/07 03:19:56;;;;;;;0.20;0.20;;;6.60;99.90;;;;;;5041235;28;20029;-80
2023/01/07 03:22:25;;;;;;;0.20;0.20;;;6.60;99.90;;;;;;5041746;28;20041;-79
2023/01/07 03:24:54;;;;;;;1.02;0.90;;;6.60;99.90;;;;;;5039528;28;20039;-80
2023/01/07 03:27:21;;;;;;;0.15;0.15;;;6.50;99.90;;;;;;5051797;28;20021;-80
2023/01/07 03:29:49;;;;;;;0.10;0.10;;;6.50;99.90;;;;;;5052043;28;20048;-79
2023/01/07 03:32:21;;;;;;;0.40;0.40;;;6.40;99.90;;;;;;5049986;28;20131;-79
2023/01/07 03:34:47;;;;;;;0.40;0.40;;;6.40;99.90;;;;;;5049203;28;20029;-78
2023/01/07 03:37:19;;;;;;;0.30;0.30;;;6.40;99.90;;;;;;5049040;28;20024;-79
2023/01/07 03:39:46;;;;;;;0.35;0.35;;;6.30;99.90;;;;;;5045509;28;20064;-79
2023/01/07 03:44:58;;;;;;;0.10;0.10;;;6.20;99.90;;;;;;5054381;28;20036;-81
2023/01/07 03:47:26;;;;;;;0.10;0.10;;;6.20;99.90;;;;;;5045382;28;20556;-81
2023/01/07 03:49:52;;;;;;;0.20;0.20;;;6.40;99.90;;;;;;5052952;28;20056;-80
2023/01/07 03:52:18;;;;;;;0.10;0.10;;;6.30;99.90;;;;;;5054913;28;20454;-81
2023/01/07 03:54:43;;;;;;;0.20;0.20;;;6.30;99.90;;;;;;5044554;28;20033;-81
2023/01/07 03:57:09;;;;;;;0.55;0.55;;;6.40;99.90;;;;;;5045478;28;20032;-80
2023/01/07 03:59:35;;;;;;;0.30;0.30;;;6.40;99.90;;;;;;5044207;28;20618;-81
2023/01/07 04:02:01;;;;;;;0.10;0.10;;;6.50;99.90;;;;;;5043872;28;20033;-80
2023/01/07 04:04:26;;;;;;;0.20;0.20;;;6.40;99.90;;;;;;5043539;28;20029;-80
2023/01/07 04:06:52;;;;;;;0.10;0.10;;;6.30;99.90;;;;;;5043281;28;20037;-80
2023/01/07 04:09:18;;;;;;;0.28;0.28;;;6.30;99.90;;;;;;5043298;28;20057;-81
2023/01/07 04:11:44;;;;;;;0.68;0.65;;;6.20;99.90;;;;;;5043248;28;20041;-80
2023/01/07 04:14:13;;;;;;;0.20;0.20;;;6.20;99.90;;;;;;5043384;28;20056;-80
2023/01/07 04:16:38;;;;;;;0.10;0.10;;;6.20;99.90;;;;;;5043146;28;20112;-80
2023/01/07 04:19:04;;;;;;;0.20;0.20;;;6.10;99.90;;;;;;5046605;28;20108;-80
2023/01/07 04:21:30;;;;;;;0.10;0.10;;;6.20;99.90;;;;;;5050189;28;20025;-79
2023/01/07 04:23:56;;;;;;;0.30;0.30;;;6.40;99.90;;;;;;5043836;28;20470;-80
2023/01/07 04:26:22;;;;;;;0.10;0.10;;;6.20;99.90;;;;;;5043336;28;20044;-79
2023/01/07 04:28:47;;;;;;;0.20;0.20;;;6.20;99.90;;;;;;5041732;28;20025;-79
2023/01/07 04:31:13;;;;;;;0.30;0.30;;;6.20;99.90;;;;;;5037689;28;20020;-80
2023/01/07 04:33:39;;;;;;;1.58;0.40;;;6.10;99.90;;;;;;5044088;28;20137;-79
2023/01/07 04:36:05;;;;;;;0.63;0.25;;;6.20;99.90;;;;;;5043905;28;20838;-79
2023/01/07 04:38:30;;;;;;;0.13;0.13;;;6.40;99.90;;;;;;5043666;28;20048;-80
2023/01/07 04:40:56;;;;;;;0.10;0.10;;;6.20;99.90;;;;;;5043772;28;20067;-80
2023/01/07 04:43:22;;;;;;;0.10;0.10;;;6.20;99.90;;;;;;5038485;28;20108;-80
2023/01/07 04:45:47;;;;;;;0.10;0.10;;;6.20;99.90;;;;;;5043119;28;20033;-80
2023/01/07 04:48:13;;;;;;;0.10;0.10;;;6.20;99.90;;;;;;5043063;28;20032;-80
2023/01/07 04:50:39;;;;;;;0.40;0.40;;;6.20;99.90;;;;;;5042881;28;20053;-79
2023/01/07 04:53:05;;;;;;;0.25;0.25;;;6.10;99.90;;;;;;5043316;28;20059;-79
2023/01/07 04:55:30;;;;;;;0.10;0.10;;;5.90;99.90;;;;;;5042824;28;20025;-79
2023/01/07 04:57:56;;;;;;;0.20;0.20;;;5.80;99.90;;;;;;5045825;28;20025;-79
2023/01/07 05:00:22;;;;;;;0.80;0.80;;;5.70;99.90;;;;;;5043046;28;20025;-80
2023/01/07 05:02:48;;;;;;;0.20;0.20;;;5.60;99.90;;;;;;5044330;28;20031;-80
2023/01/07 05:05:13;;;;;;;0.10;0.10;;;5.70;99.90;;;;;;5051754;28;20032;-79
2023/01/07 05:07:39;;;;;;;0.10;0.10;;;5.70;99.90;;;;;;5040951;28;20152;-79
2023/01/07 05:10:05;;;;;;;0.32;0.32;;;5.70;99.90;;;;;;5043073;28;20033;-81
2023/01/07 05:12:35;;;;;;;0.20;0.20;;;5.70;99.90;;;;;;5041860;28;20098;-80
2023/01/07 05:15:02;;;;;;;0.10;0.10;;;5.80;99.90;;;;;;5042183;28;20025;-80
2023/01/07 05:17:27;;;;;;;;;;;5.90;99.90;;;;;;5040711;28;20037;-79
2023/01/07 05:19:53;;;;;;;0.67;0.47;;;5.70;99.90;;;;;;5049968;28;19912;-80
2023/01/07 05:22:19;;;;;;;0.32;0.32;;;5.70;99.90;;;;;;5040454;28;20839;-79
2023/01/07 05:24:44;;;;;;;0.10;0.10;;;5.60;99.90;;;;;;5041865;28;20108;-79
2023/01/07 05:27:10;;;;;;;0.20;0.20;;;5.60;99.90;;;;;;5042271;28;20091;-80
2023/01/07 05:29:36;;;;;;;0.10;0.10;;;5.70;99.90;;;;;;5042308;28;20028;-79
2023/01/07 05:32:03;;;;;;;0.17;0.17;;;5.80;99.90;;;;;;5041354;28;20029;-80
2023/01/07 05:34:29;;;;;;;0.10;0.10;;;5.90;99.90;;;;;;5041742;28;20358;-80
2023/01/07 05:36:55;;;;;;;0.22;0.22;;;5.80;99.90;;;;;;5041526;28;20457;-80
2023/01/07 05:39:21;;;;;;;0.22;0.22;;;5.90;99.90;;;;;;5039991;28;20044;-80
2023/01/07 05:41:47;;;;;;;0.10;0.10;;;5.80;99.90;;;;;;5041160;28;20033;-80
2023/01/07 05:44:13;;;;;;;0.15;0.15;;;5.80;99.90;;;;;;5041919;28;20029;-80
2023/01/07 05:46:39;;;;;;;1.45;0.50;;;5.80;99.90;;;;;;5041917;28;20025;-80
2023/01/07 05:49:04;;;;;;;0.10;0.10;;;5.60;99.90;;;;;;5041690;28;20579;-80
2023/01/07 05:51:30;;;;;;;0.17;0.17;;;5.50;99.90;;;;;;5041057;28;20513;-80
2023/01/07 05:53:56;;;;;;;0.10;0.10;;;5.60;99.90;;;;;;5041442;28;20060;-81
2023/01/07 05:56:21;;;;;;;0.10;0.10;;;5.70;99.90;;;;;;5041227;28;20025;-80
2023/01/07 05:58:47;;;;;;;0.10;0.10;;;5.60;99.90;;;;;;5047616;28;20467;-80
2023/01/07 06:01:13;;;;;;;0.20;0.20;;;5.60;99.90;;;;;;5041171;28;20036;-80
2023/01/07 06:03:39;;;;;;;0.30;0.30;;;5.60;99.90;;;;;;5041592;28;20033;-79
2023/01/07 06:06:07;;;;;;;0.30;0.30;;;5.60;99.90;;;;;;5041389;28;20083;-80
2023/01/07 06:08:34;;;;;;;0.10;0.10;;;5.60;99.90;;;;;;5035769;28;20404;-79
2023/01/07 06:11:00;;;;;;;0.30;0.30;;;5.90;99.90;;;;;;5041535;28;20679;-79
2023/01/07 06:13:25;;;;;;;0.50;0.30;;;5.80;99.90;;;;;;5039228;28;20163;-79
2023/01/07 06:15:51;;;;;;;0.50;0.50;;;5.60;99.90;;;;;;5042258;28;20555;-81
2023/01/07 06:18:17;;;;;;;0.77;0.77;;;5.80;99.90;;;;;;5042013;28;20029;-80
2023/01/07 06:20:42;;;;;;;0.52;0.28;;;5.90;99.90;;;;;;5047860;28;20021;-80
2023/01/07 06:23:09;;;;;;;0.32;0.32;;;5.90;99.90;;;;;;5042823;28;20029;-79
2023/01/07 06:25:34;;;;;;;0.33;0.33;;;5.80;99.90;;;;;;5046415;28;20040;-79
2023/01/07 06:28:00;;;;;;;0.20;0.20;;;6.00;99.90;;;;;;5044054;28;20029;-79
2023/01/07 06:30:26;;;;;;;0.77;0.75;;;6.00;99.90;;;;;;5034009;28;20066;-79
2023/01/07 06:32:52;;;;;;;0.10;0.10;;;6.00;99.90;;;;;;5041836;28;20124;-78
2023/01/07 06:35:18;;;;;;;0.45;0.45;;;5.90;99.90;;;;;;5042188;28;20488;-79
2023/01/07 06:37:44;;;;;;;0.20;0.20;;;6.00;99.90;;;;;;5040551;28;20041;-79
2023/01/07 06:40:10;;;;;;;0.40;0.40;;;6.00;99.90;;;;;;5040977;28;20025;-79
2023/01/07 06:42:36;;;;;;;0.10;0.10;;;6.00;99.90;;;;;;5047607;28;20800;-78
2023/01/07 06:45:02;;;;;;;0.10;0.10;;;6.00;99.90;;;;;;5041906;28;20033;-78
2023/01/07 06:47:28;;;;;;;0.33;0.33;;;6.00;99.90;;;;;;5041171;28;20539;-79
2023/01/07 06:49:54;;;;;;;0.20;0.20;;;6.10;99.90;;;;;;5040761;28;20152;-78
2023/01/07 06:52:19;;;;;;;0.20;0.20;;;6.00;99.90;;;;;;5039727;28;20095;-79
2023/01/07 06:54:45;;;;;;;1.17;1.13;;;6.10;99.90;;;;;;5045035;28;20051;-77
2023/01/07 06:57:11;;;;;;;0.28;0.28;;;6.10;99.90;;;;;;5044681;28;20110;-78
2023/01/07 06:59:37;;;;;;;0.50;0.50;;;6.10;99.90;;;;;;5051605;28;20078;-79
2023/01/07 07:02:03;;;;;;;0.47;0.47;;;6.20;99.90;;;;;;5044554;28;20068;-78
2023/01/07 07:04:28;;;;;;;0.50;0.50;;;6.10;99.90;;;;;;5044470;28;20040;-77
2023/01/07 07:06:54;;;;;;;0.20;0.20;;;6.30;99.90;;;;;;5039070;28;20572;-79
2023/01/07 07:09:20;;;;;;;0.28;0.28;;;6.30;99.90;;;;;;5045414;28;20424;-77
2023/01/07 07:11:45;;;;;;;0.20;0.20;;;6.40;99.90;;;;;;5044435;28;20116;-76
2023/01/07 07:14:11;;;;;;;0.30;0.30;;;6.20;99.90;;;;;;5044699;28;20037;-78
2023/01/07 07:16:37;;;;;;;0.55;0.45;;;6.30;99.90;;;;;;5042205;28;20033;-77
2023/01/07 07:19:03;;;;;;;0.30;0.30;;;6.30;99.90;;;;;;5044008;28;20104;-77
2023/01/07 07:21:28;;;;;;;3.65;0.43;;;6.40;99.90;;;;;;5052734;28;20107;-76
2023/01/07 07:23:54;;;;;;;0.20;0.20;;;6.30;99.90;;;;;;5048687;28;20036;-78
2023/01/07 07:26:20;;;;;;;0.17;0.17;;;6.40;99.90;;;;;;5052175;28;20394;-77
2023/01/07 07:28:45;;;;;;;0.20;0.20;;;6.30;99.90;;;;;;5043770;28;20025;-77
2023/01/07 07:31:11;;;;;;;0.20;0.20;;;6.30;99.90;;;;;;5043622;28;20057;-77
2023/01/07 07:33:37;;;;;;;0.50;0.50;;;6.40;99.90;;;;;;5040645;28;20043;-77
2023/01/07 07:36:03;;;;;;;0.20;0.20;;;6.30;99.90;;;;;;5032977;28;20060;-77
2023/01/07 07:38:29;;;;;;;0.13;0.13;;;6.30;99.90;;;;;;5034559;28;20025;-77
2023/01/07 07:40:55;;;;;;;0.25;0.25;;;6.30;99.90;;;;;;5048588;28;20032;-77
2023/01/07 07:43:21;;;;;;;0.27;0.27;;;6.20;99.90;;;;;;5043182;28;20028;-77
2023/01/07 07:45:47;;;;;;;0.73;0.73;;;6.50;99.90;;;;;;5055372;28;20075;-77
2023/01/07 07:48:14;;;;;;;0.52;0.52;;;6.40;99.90;;;;;;5049665;28;20029;-77
2023/01/07 07:50:40;;;;;;;0.10;0.10;;;6.30;99.90;;;;;;5045497;28;20124;-77
2023/01/07 07:53:08;;;;;;;0.47;0.47;;;6.10;99.90;;;;;;5042754;28;20041;-77
2023/01/07 07:55:36;;;;;;;0.32;0.32;;;6.20;99.90;;;;;;5043597;28;20025;-77
2023/01/07 07:58:02;;;;;;;0.77;0.50;;;6.30;99.90;;;;;;5042638;28;20078;-77
2023/01/07 08:00:28;;;;;;;0.17;0.17;;;6.40;99.90;;;;;;5044175;28;20029;-77
2023/01/07 08:02:59;;;;;;;0.43;0.43;;;6.60;99.90;;;;;;5046780;28;20039;-77
2023/01/07 08:05:26;;;;;;;1.48;1.08;;;6.80;99.90;;;;;;5035230;28;20027;-77
2023/01/07 08:07:52;;;;;;;;;;;7.10;99.90;;;;;;5043771;28;20511;-77
2023/01/07 08:10:19;;;;;;;0.10;0.10;;;7.00;99.90;;;;;;5043575;28;19913;-76
2023/01/07 08:12:45;;;;;;;;;;;7.00;99.90;;;;;;5043711;28;20053;-76
2023/01/07 08:15:11;;;;;;;0.20;0.20;;;6.90;99.90;;;;;;5043449;28;19908;-76
2023/01/07 08:17:37;;;;;;;0.10;0.10;;;7.00;99.90;;;;;;5043772;28;20645;-76
2023/01/07 08:20:04;;;;;;;0.80;0.80;;;7.10;99.90;;;;;;5041481;28;20060;-76
2023/01/07 08:22:30;;;;;;;0.73;0.73;;;7.30;99.90;;;;;;5043627;28;20032;-76
2023/01/07 08:24:56;;;;;;;0.20;0.20;;;7.20;99.90;;;;;;5043368;28;20024;-75
2023/01/07 08:27:22;;;;;;;0.10;0.10;;;7.30;99.90;;;;;;5051217;28;20149;-76
2023/01/07 08:29:47;;;;;;;0.50;0.50;;;7.30;99.90;;;;;;5047051;28;20484;-75
2023/01/07 08:32:13;;;;;;;0.70;0.35;;;7.30;99.90;;;;;;5043262;28;20108;-74
2023/01/07 08:34:39;;;;;;;2.08;1.05;;;7.40;99.90;;;;;;5030908;28;20033;-76
2023/01/07 08:37:04;;;;;;;1.02;1.02;;;7.50;99.90;;;;;;5038068;28;20782;-77
2023/01/07 08:39:30;;;;;;;0.43;0.43;;;8.00;99.90;;;;;;5043636;28;20029;-77
2023/01/07 08:41:56;;;;;;;1.30;0.90;;;8.60;99.90;;;;;;5050362;28;20782;-76
2023/01/07 08:44:21;;;;;;;0.70;0.68;;;8.80;99.90;;;;;;5052249;28;20772;-75
2023/01/07 08:46:47;;;;;;;0.40;0.40;;;8.60;99.90;;;;;;5042995;28;20484;-75
2023/01/07 08:49:13;;;;;;;1.30;1.20;;;8.40;99.90;;;;;;5043646;28;20387;-75
2023/01/07 08:51:38;;;;;;;0.40;0.40;;;8.20;99.90;;;;;;5038059;28;20059;-75
2023/01/07 08:54:04;;;;;;;0.45;0.45;;;8.10;99.90;;;;;;5047776;28;20039;-75
2023/01/07 08:56:32;;;;;;;1.50;0.80;;;8.10;99.90;;;;;;5048102;28;20102;-75
2023/01/07 08:58:58;;;;;;;0.30;0.30;;;8.60;99.90;;;;;;5044495;28;20056;-75
2023/01/07 09:01:24;;;;;;;0.15;0.15;;;8.90;99.90;;;;;;5043267;28;20029;-75
2023/01/07 09:03:49;;;;;;;0.40;0.40;;;8.90;99.90;;;;;;5047649;28;20696;-77
2023/01/07 09:06:15;;;;;;;1.08;0.98;;;9.20;99.90;;;;;;5036057;28;20068;-76
2023/01/07 09:08:40;;;;;;;0.28;0.28;;;8.60;99.90;;;;;;5040203;28;20534;-77
2023/01/07 09:11:06;;;;;;;0.70;0.43;;;8.40;99.90;;;;;;5029865;28;20699;-76
2023/01/07 09:13:32;;;;;;;0.30;0.30;;;8.40;99.90;;;;;;5042728;28;20792;-77
2023/01/07 09:15:59;;;;;;;0.25;0.25;;;8.30;99.90;;;;;;5038704;28;20029;-75
2023/01/07 09:18:24;;;;;;;0.13;0.13;;;8.20;99.90;;;;;;5048666;28;20020;-76
2023/01/07 09:20:50;;;;;;;0.10;0.10;;;8.10;99.90;;;;;;5055747;28;20844;-74
2023/01/07 09:23:16;;;;;;;0.20;0.20;;;8.10;99.90;;;;;;5041653;28;20029;-75
2023/01/07 09:25:42;;;;;;;0.30;0.30;;;8.40;99.90;;;;;;5049717;28;20030;-75
2023/01/07 09:28:07;;;;;;;0.20;0.20;;;8.60;99.90;;;;;;5047125;28;21266;-77
2023/01/07 09:30:33;;;;;;;0.30;0.30;;;8.70;99.90;;;;;;5049803;28;20067;-76
2023/01/07 09:32:59;;;;;;;0.28;0.28;;;9.00;99.90;;;;;;5045029;28;20036;-78
2023/01/07 09:35:24;;;;;;;0.57;0.57;;;9.40;99.90;;;;;;5047747;28;20081;-76
2023/01/07 09:37:50;;;;;;;0.25;0.25;;;9.80;99.90;;;;;;5049951;28;20031;-75
2023/01/07 09:40:26;;;;;;;1.17;0.75;;;10.20;99.90;;;;;;5050404;28;20480;-76
2023/01/07 09:43:03;;;;;;;0.75;0.75;;;10.20;99.90;;;;;;5043881;28;20029;-75
2023/01/07 09:45:38;;;;;;;0.73;0.73;;;10.10;99.90;;;;;;5042515;28;20051;-75
2023/01/07 09:48:11;;;;;;;0.30;0.30;;;10.00;99.90;;;;;;5042325;28;20773;-75
2023/01/07 09:50:37;;;;;;;0.20;0.20;;;9.90;99.90;;;;;;5041162;28;20063;-76
2023/01/07 09:53:07;;;;;;;0.28;0.28;;;9.80;99.90;;;;;;5050887;28;20044;-75
2023/01/07 09:55:36;;;;;;;0.20;0.20;;;9.60;99.90;;;;;;5047568;28;20032;-76
2023/01/07 09:58:02;;;;;;;0.52;0.52;;;9.60;99.90;;;;;;5043039;28;20110;-75
2023/01/07 10:00:31;;;;;;;0.38;0.32;;;9.60;99.90;;;;;;5048125;28;20238;-75
2023/01/07 10:03:13;;;;;;;0.30;0.30;;;9.40;99.90;;;;;;5048024;28;20802;-77
2023/01/07 10:06:04;;;;;;;0.52;0.52;;;9.50;99.90;;;;;;5047379;28;20163;-77
2023/01/07 10:08:50;;;;;;;0.85;0.82;;;9.60;99.90;;;;;;5040199;28;20072;-78
2023/01/07 10:11:48;;;;;;;0.60;0.60;;;9.70;99.90;;;;;;5049170;28;20037;-74
2023/01/07 10:14:37;;;;;;;0.10;0.10;;;9.70;99.90;;;;;;5043871;28;20043;-77
2023/01/07 10:17:21;;;;;;;0.55;0.55;;;9.70;99.90;;;;;;5048346;28;20132;-77
2023/01/07 10:20:16;;;;;;;0.20;0.20;;;9.70;99.90;;;;;;5044790;28;20036;-76
2023/01/07 10:22:54;;;;;;;0.43;0.43;;;9.80;99.90;;;;;;5045697;28;20895;-77
2023/01/07 10:25:24;;;;;;;0.30;0.30;;;9.60;99.90;;;;;;5046003;28;20071;-77
2023/01/07 10:27:53;;;;;;;0.20;0.20;;;9.60;99.90;;;;;;5039436;28;20564;-76
2023/01/07 10:30:24;;;;;;;0.28;0.28;;;9.70;99.90;;;;;;5050142;28;20098;-77
2023/01/07 10:33:12;;;;;;;2.22;0.57;;;9.60;99.90;;;;;;5040893;28;20040;-79
2023/01/07 10:35:40;;;;;;;1.38;0.90;;;9.50;99.90;;;;;;5043115;28;20763;-80
2023/01/07 10:38:13;;;;;;;6.95;1.05;;;9.50;99.90;;;;;;5044745;28;20122;-78
2023/01/07 10:40:46;;;;;;;0.10;0.10;;;9.50;99.90;;;;;;5046522;28;20055;-80
2023/01/07 10:43:42;;;;;;;0.30;0.30;;;9.40;99.90;;;;;;5055961;28;20032;-79
2023/01/07 10:46:23;;;;;;;0.20;0.20;;;9.20;99.90;;;;;;5042290;28;20106;-79
2023/01/07 10:49:00;;;;;;;0.45;0.45;;;9.20;99.90;;;;;;5042565;28;20835;-78
2023/01/07 10:52:06;;;;;;;0.85;0.85;;;9.10;99.90;;;;;;5041704;28;20103;-80
2023/01/07 10:54:32;;;;;;;;;;;9.10;99.90;;;;;;5041044;28;20564;-78
2023/01/07 10:57:05;;;;;;;0.63;0.63;;;9.20;99.90;;;;;;5044165;28;19916;-77
2023/01/07 10:59:31;;;;;;;4.93;3.10;;;9.30;99.90;;;;;;5045784;28;20037;-77
2023/01/07 11:01:58;;;;;;;0.63;0.63;;;9.40;99.90;;;;;;5045990;28;20037;-77
2023/01/07 11:04:25;;;;;;;0.82;0.63;;;9.50;99.90;;;;;;5045074;28;20073;-77
2023/01/07 11:07:26;;;;;;;1.38;1.27;;;9.30;99.90;;;;;;5048325;28;20116;-77
2023/01/07 11:09:53;;;;;;;2.78;2.38;;;9.20;99.90;;;;;;5032157;28;20056;-76
2023/01/07 11:12:40;;;;;;;1.70;1.58;;;9.20;99.90;;;;;;5048643;28;20043;-76
2023/01/07 11:15:14;;;;;;;2.75;1.42;;;9.40;99.90;;;;;;5047582;28;20105;-76
2023/01/07 11:17:56;;;;;;;0.80;0.80;;;9.60;99.90;;;;;;5044073;28;20071;-77
2023/01/07 11:20:44;;;;;;;0.50;0.50;;;9.60;99.90;;;;;;5047869;28;20028;-77
2023/01/07 11:23:30;;;;;;;0.80;0.80;;;9.50;99.90;;;;;;5051963;28;20025;-76
2023/01/07 11:26:26;;;;;;;0.40;0.40;;;9.70;99.90;;;;;;5044260;28;20077;-77
2023/01/07 11:28:55;;;;;;;0.57;0.57;;;9.60;99.90;;;;;;5040630;28;20052;-76
2023/01/07 11:31:41;;;;;;;0.17;0.17;;;9.60;99.90;;;;;;5049864;28;20021;-76
2023/01/07 11:34:26;;;;;;;0.73;0.50;;;9.60;99.90;;;;;;5050662;28;20100;-76
2023/01/07 11:36:52;;;;;;;0.77;0.77;;;9.70;99.90;;;;;;5046153;28;20037;-76
2023/01/07 11:39:24;;;;;;;0.50;0.50;;;9.70;99.90;;;;;;5050373;28;20108;-78
2023/01/07 11:42:37;;;;;;;0.70;0.70;;;9.80;99.90;;;;;;5040679;28;20033;-78
2023/01/07 11:45:18;;;;;;;3.50;0.50;;;9.90;99.90;;;;;;5027679;28;20507;-76
2023/01/07 11:48:05;;;;;;;1.13;0.85;;;10.00;99.90;;;;;;5043441;28;20025;-77
2023/01/07 11:50:36;;;;;;;;;;;10.00;99.90;;;;;;5038653;28;20033;-77
2023/01/07 11:53:14;;;;;;;0.60;0.60;;;10.10;99.90;;;;;;5040867;28;19920;-77
2023/01/07 11:55:56;;;;;;;0.45;0.35;;;10.20;99.90;;;;;;5052224;28;20404;-75
2023/01/07 11:58:23;;;;;;;0.80;0.80;;;10.30;99.90;;;;;;5049111;28;20032;-75
2023/01/07 12:01:07;;;;;;;0.22;0.22;;;10.30;99.90;;;;;;5055171;28;20027;-75
2023/01/07 12:03:34;;;;;;;0.82;0.82;;;10.30;99.90;;;;;;5042601;28;20082;-75
2023/01/07 12:06:18;;;;;;;1.63;1.48;;;10.20;99.90;;;;;;5047749;28;20021;-75
2023/01/07 12:08:53;;;;;;;0.32;0.32;;;10.20;99.90;;;;;;5055675;28;20114;-75
2023/01/07 12:11:20;;;;;;;0.70;0.70;;;10.20;99.90;;;;;;5047731;28;20033;-75
2023/01/07 12:13:51;;;;;;;0.47;0.47;;;10.20;99.90;;;;;;5044017;28;20044;-75
2023/01/07 12:16:26;;;;;;;2.28;2.03;;;10.30;99.90;;;;;;5031845;28;20086;-75
2023/01/07 12:19:10;;;;;;;0.77;0.77;;;10.20;99.90;;;;;;5034797;28;20049;-75
2023/01/07 12:21:42;;;;;;;0.30;0.30;;;10.30;99.90;;;;;;5034903;28;20136;-75
2023/01/07 12:24:45;;;;;;;0.28;0.28;;;10.20;99.90;;;;;;5040370;28;20024;-75
2023/01/07 12:27:34;;;;;;;0.52;0.52;;;10.20;99.90;;;;;;5040069;28;20025;-75
2023/01/07 12:30:22;;;;;;;1.10;0.25;;;10.30;99.90;;;;;;5041889;28;20036;-75
2023/01/07 12:33:13;;;;;;;0.28;0.22;;;10.40;99.90;;;;;;5031280;28;20040;-76
2023/01/07 12:35:42;;;;;;;0.22;0.22;;;10.40;99.90;;;;;;5036527;28;20598;-76
2023/01/07 12:38:16;;;;;;;0.40;0.40;;;10.30;99.90;;;;;;5031331;28;20032;-76
2023/01/07 12:40:51;;;;;;;0.63;0.60;;;10.30;99.90;;;;;;5034897;28;20131;-75
2023/01/07 12:43:16;;;;;;;0.80;0.80;;;10.40;99.90;;;;;;5037605;28;20120;-75
2023/01/07 12:45:45;;;;;;;6.13;1.10;;;10.40;99.90;;;;;;5028758;28;20054;-75
2023/01/07 12:48:24;;;;;;;0.45;0.45;;;10.40;99.90;;;;;;5040635;28;20044;-75
2023/01/07 12:50:53;;;;;;;0.52;0.52;;;10.40;99.90;;;;;;5032422;28;20032;-75
2023/01/07 12:53:22;;;;;;;0.15;0.15;;;10.60;99.90;;;;;;5030861;28;20042;-75
2023/01/07 12:55:55;;;;;;;0.20;0.20;;;10.50;99.90;;;;;;5042864;28;20032;-74
2023/01/07 12:58:34;;;;;;;0.20;0.20;;;10.60;99.90;;;;;;5055237;28;20159;-75
2023/01/07 13:01:09;;;;;;;0.38;0.35;;;10.60;99.90;;;;;;5043877;28;20028;-75
2023/01/07 13:04:00;;;;;;;0.70;0.60;;;10.60;99.90;;;;;;5053393;28;20590;-75
2023/01/07 13:06:43;;;;;;;1.05;0.73;;;10.50;99.90;;;;;;5040451;28;20742;-75
2023/01/07 13:09:34;;;;;;;0.22;0.20;;;10.60;99.90;;;;;;5035401;28;20055;-75
2023/01/07 13:14:56;;;;;;;0.30;0.30;;;10.70;99.90;;;;;;5050724;28;20083;-75
2023/01/07 13:17:28;;;;;;;0.85;0.85;;;10.60;99.90;;;;;;5032819;28;20028;-74
2023/01/07 13:19:55;;;;;;;0.35;0.35;;;10.50;99.90;;;;;;5039836;28;20063;-74
2023/01/07 13:22:48;;;;;;;0.32;0.32;;;10.50;99.90;;;;;;5040581;28;20037;-75